Gerlach, NV

1:00 AM PDT on September 03, 2014 (GMT -0700)
Alturas Municipal | Change Station
CLOSE
Current Station
Airport
Location: Alturas,
Elevation: 4373 ft
Nearby Weather Stations

Elev 4373 ft 41.49 °N, 120.56 °W | Updated 5 minutes ago

Clear
Clear
57 °F
Feels Like 57 °F
N
6
Wind Variable Wind from West

Today
High -- | Low -- °F
--% Chance of Precip.
Yesterday
High -- | Low -- °F
Precip. -- in
6:27 AM 7:27 PM
First Quarter, 60% visible
Pressure 29.83 in
Visibility 10.0 miles
Clouds Clear
Dew Point 35 °F
Humidity 44%
Rainfall 0.00 in
Snow Depth Not available.
UV 0 out of 12
Pollen 8.20 out of 12
Air Quality Not available.
Flu Activity Not available.
METAR KAAT 030755Z AUTO 28005KT 10SM CLR 14/02 A2997 RMK AO2 SLP101 T01390017 403220028

More Conditions Fewer Conditions

Pressure 29.83 in
Visibility 10.0 miles
Clouds Clear
Dew Point 35 °F
Humidity 44%
Rainfall 0.00 in
Snow Depth Not available.
UV 0 out of 12
Pollen 8.20 out of 12
Air Quality Not available.
Flu Activity Not available.
METAR KAAT 030755Z AUTO 28005KT 10SM CLR 14/02 A2997 RMK AO2 SLP101 T01390017 403220028

More Conditions Fewer Conditions

10-Day Weather Forecast

Almanac

Astronomy

Sep. 03, 2014 Rise Set
Actual Time 6:27 AM PDT 7:27 PM PDT
Civil Twilight 5:58 AM PDT 7:56 PM PDT
Nautical Twilight 5:25 AM PDT 8:29 PM PDT
Astronomical Twilight 4:49 AM PDT 9:04 PM PDT
Moon 3:16 PM PDT 12:23 AM PDT
Length of Visible Light 13h 57m
Length of Day
13h 00m
Tomorrow will be 2m 40s shorter.
First Quarter, 60% of the Moon is Illuminated
Today
First Quarter
Sep 8
Full
Sep 15
Last Quarter
Sep 24
New
Oct 1
First Quarter

Today's Extremes

State Highs State Lows

Community

WunderPhotos

Upload Photos

1,749,902 photos uploaded!

Nearby

Snow Depth

Station Depth Elevation
Lamance Creek 0 in 6000 ft
Granite Peak 1 in 7800 ft
Buckskin Lower 3 in 6700 ft
Mt. Rose Ski Area 0 in 8850 ft
Jacks Peak 4 in 8420 ft

Earthquake Activity

City Distance Mag. Time & Date
No recent earthquake activity has been reported nearby.
Minimum magnitude displayed is 2.5.

Coastal Water Temperatures

Place Temperature
No Stations Reporting

Nearby Weather Stations